Time;durP1;ratioP1;P1;durP2;ratioP2;P2;SDS_P1;SDS_P2;PMS_P1;PMS_P2;Temp;Humidity;BMP_temperature;BMP_pressure;BME280_temperature;BME280_humidity;BME280_pressure;Samples;Min_cycle;Max_cycle;Signal;HPM_P1;HPM_P2
2023/09/17 00:02:15;;;;;;;10.10;6.80;;;;;;;20.28;85.83;95682.41;5064800;28;20218;-75
2023/09/17 00:04:41;;;;;;;9.90;6.57;;;;;;;20.29;84.84;95688.56;5070332;28;20225;-75
2023/09/17 00:07:06;;;;;;;10.13;6.47;;;;;;;20.35;84.33;95682.28;5047363;28;20235;-74
2023/09/17 00:09:32;;;;;;;9.93;6.10;;;;;;;20.29;84.04;95684.03;5045510;28;20274;-74
2023/09/17 00:11:58;;;;;;;10.00;6.00;;;;;;;20.29;83.94;95677.91;5033186;28;20248;-75
2023/09/17 00:14:23;;;;;;;10.57;6.10;;;;;;;20.31;83.85;95665.19;5059599;28;20292;-75
2023/09/17 00:16:49;;;;;;;8.83;5.70;;;;;;;20.36;83.99;95667.94;5037492;28;21051;-75
2023/09/17 00:19:14;;;;;;;8.67;5.67;;;;;;;20.35;83.99;95666.31;5047748;28;20260;-75
2023/09/17 00:21:43;;;;;;;9.57;5.60;;;;;;;20.28;83.71;95668.31;5036277;28;20224;-76
2023/09/17 00:24:09;;;;;;;8.83;5.70;;;;;;;20.24;83.91;95661.88;5025774;28;20286;-75
2023/09/17 00:26:34;;;;;;;10.83;5.70;;;;;;;20.20;83.97;95663.38;5051212;28;20272;-76
2023/09/17 00:29:00;;;;;;;10.17;5.87;;;;;;;20.27;84.14;95661.41;5063133;28;20603;-73
2023/09/17 00:31:27;;;;;;;8.87;5.40;;;;;;;20.27;83.46;95658.75;5071288;28;20227;-74
2023/09/17 00:33:53;;;;;;;9.53;5.33;;;;;;;20.23;83.70;95660.28;5052774;28;20246;-75
2023/09/17 00:36:19;;;;;;;8.33;5.80;;;;;;;20.11;83.41;95655.78;5064545;28;20307;-75
2023/09/17 00:38:45;;;;;;;7.63;5.13;;;;;;;20.11;83.90;95650.47;5034227;28;20231;-75
2023/09/17 00:41:10;;;;;;;11.80;5.40;;;;;;;20.21;83.42;95651.69;5049383;28;20225;-75
2023/09/17 00:43:35;;;;;;;10.97;5.47;;;;;;;20.16;83.49;95655.06;5050165;28;20276;-76
2023/09/17 00:46:01;;;;;;;10.10;5.60;;;;;;;20.08;84.23;95656.25;5034231;28;20232;-75
2023/09/17 00:48:27;;;;;;;10.53;5.40;;;;;;;19.97;84.06;95654.50;5031419;28;20232;-75
2023/09/17 00:50:53;;;;;;;11.48;5.78;;;;;;;20.02;84.92;95648.44;5064463;28;20237;-75
2023/09/17 00:53:18;;;;;;;10.20;5.67;;;;;;;20.06;84.66;95650.38;5039643;28;20240;-75
2023/09/17 00:55:44;;;;;;;10.30;5.87;;;;;;;20.04;84.70;95655.13;5070981;28;20224;-75
2023/09/17 00:58:09;;;;;;;10.63;6.70;;;;;;;20.07;85.10;95652.00;5067968;28;20982;-75
2023/09/17 01:00:38;;;;;;;10.43;6.87;;;;;;;20.03;85.26;95648.22;5073433;28;20605;-75
2023/09/17 01:03:05;;;;;;;10.47;7.07;;;;;;;20.01;85.52;95652.19;5069454;28;20234;-75
2023/09/17 01:05:37;;;;;;;12.77;7.20;;;;;;;19.96;86.51;95652.91;5051864;28;20240;-75
2023/09/17 01:08:05;;;;;;;12.47;7.83;;;;;;;19.96;86.66;95654.75;5053735;28;20221;-74
2023/09/17 01:10:32;;;;;;;14.00;7.87;;;;;;;19.85;87.53;95658.25;5075795;28;20236;-75
2023/09/17 01:12:58;;;;;;;14.07;8.13;;;;;;;19.89;87.14;95652.25;5056417;28;20232;-75
2023/09/17 01:15:27;;;;;;;13.00;8.77;;;;;;;19.83;88.09;95647.06;5059488;28;20258;-75
2023/09/17 01:17:54;;;;;;;14.60;9.47;;;;;;;19.83;88.08;95650.53;5069760;28;20239;-75
2023/09/17 01:20:25;;;;;;;13.43;9.17;;;;;;;19.78;88.57;95642.47;5062314;28;20241;-75
2023/09/17 01:22:52;;;;;;;14.50;9.57;;;;;;;19.85;88.30;95643.13;5048756;28;20232;-75
2023/09/17 01:25:27;;;;;;;18.67;10.53;;;;;;;19.75;89.05;95642.94;5032232;28;20313;-74
2023/09/17 01:27:52;;;;;;;17.60;10.37;;;;;;;19.89;88.59;95648.78;5058664;28;20355;-75
2023/09/17 01:30:21;;;;;;;18.80;10.87;;;;;;;19.78;89.21;95641.66;5072179;28;20363;-75
2023/09/17 01:32:47;;;;;;;20.60;12.10;;;;;;;19.77;89.69;95650.69;5050096;28;20314;-75
2023/09/17 01:35:13;;;;;;;17.97;12.40;;;;;;;19.63;90.52;95652.00;5065079;28;20289;-74
2023/09/17 01:37:41;;;;;;;19.10;12.60;;;;;;;19.68;90.51;95647.59;5051478;28;20224;-75
2023/09/17 01:40:10;;;;;;;19.57;12.90;;;;;;;19.70;90.70;95647.38;5056304;28;20290;-75
2023/09/17 01:42:36;;;;;;;20.27;12.87;;;;;;;19.68;90.93;95647.59;5067166;28;20224;-75
2023/09/17 01:45:02;;;;;;;23.17;13.47;;;;;;;19.67;91.08;95653.16;5045082;28;20699;-75
2023/09/17 01:47:28;;;;;;;18.50;12.70;;;;;;;19.69;91.28;95649.22;5031211;28;20751;-76
2023/09/17 01:49:57;;;;;;;19.63;13.50;;;;;;;19.64;91.23;95651.75;5050259;28;20224;-75
2023/09/17 01:52:26;;;;;;;22.67;13.53;;;;;;;19.70;91.19;95650.84;5037276;28;20229;-75
2023/09/17 01:54:52;;;;;;;20.37;13.37;;;;;;;19.65;91.49;95648.09;5033549;28;20233;-75
2023/09/17 01:57:17;;;;;;;21.87;14.17;;;;;;;19.61;91.74;95646.91;5047733;28;20228;-75
2023/09/17 01:59:43;;;;;;;20.83;14.33;;;;;;;19.65;91.38;95645.44;5057620;28;20640;-75
2023/09/17 02:02:08;;;;;;;22.27;14.63;;;;;;;19.68;91.54;95646.81;5065443;28;20352;-75
2023/09/17 02:04:33;;;;;;;21.50;14.20;;;;;;;19.70;91.02;95640.22;5052378;28;20245;-75
2023/09/17 02:06:59;;;;;;;28.17;14.90;;;;;;;19.60;91.17;95647.97;5061594;28;20229;-74
2023/09/17 02:09:24;;;;;;;23.97;14.80;;;;;;;19.56;91.69;95656.66;5064038;28;20231;-75
2023/09/17 02:11:50;;;;;;;24.13;14.27;;;;;;;19.64;91.62;95651.75;5062681;28;20868;-75
2023/09/17 02:14:16;;;;;;;22.20;14.40;;;;;;;19.67;91.31;95656.63;5052983;28;20225;-74
2023/09/17 02:16:42;;;;;;;23.23;14.53;;;;;;;19.60;91.60;95647.97;5052508;28;20259;-75
2023/09/17 02:19:09;;;;;;;27.57;14.60;;;;;;;19.56;91.69;95648.69;5029757;28;20236;-75
2023/09/17 02:21:35;;;;;;;22.77;15.23;;;;;;;19.49;92.53;95654.94;5065284;28;20240;-74
2023/09/17 02:24:00;;;;;;;25.97;15.10;;;;;;;19.53;91.73;95655.28;5033239;28;20244;-74
2023/09/17 02:26:26;;;;;;;22.83;15.23;;;;;;;19.58;91.60;95655.38;5047141;28;20243;-75
2023/09/17 02:28:51;;;;;;;24.67;14.83;;;;;;;19.52;91.69;95650.19;5064447;28;20290;-75
2023/09/17 02:31:17;;;;;;;23.47;15.13;;;;;;;19.61;91.70;95657.53;5043892;28;20287;-75
2023/09/17 02:33:43;;;;;;;24.53;14.50;;;;;;;19.56;91.53;95652.13;5045357;28;20251;-74
2023/09/17 02:36:09;;;;;;;24.53;14.70;;;;;;;19.53;91.57;95652.63;5035760;28;20289;-75
2023/09/17 02:38:34;;;;;;;26.00;14.63;;;;;;;19.54;91.71;95662.19;5064865;28;20228;-75
2023/09/17 02:41:00;;;;;;;23.93;14.73;;;;;;;19.41;92.36;95650.03;5062996;28;20232;-75
2023/09/17 02:43:29;;;;;;;27.13;15.20;;;;;;;19.51;92.06;95648.59;5036571;28;20727;-75
2023/09/17 02:45:55;;;;;;;25.63;14.73;;;;;;;19.48;92.15;95656.00;5052570;28;20327;-75
2023/09/17 02:48:21;;;;;;;25.53;14.87;;;;;;;19.49;92.19;95656.78;5067276;28;20285;-75
2023/09/17 02:50:47;;;;;;;23.00;14.43;;;;;;;19.41;92.21;95646.56;5067882;28;20657;-76
2023/09/17 02:53:12;;;;;;;23.80;14.77;;;;;;;19.37;91.90;95646.22;5049932;28;20236;-76
2023/09/17 02:55:39;;;;;;;24.63;14.17;;;;;;;19.39;92.31;95640.69;5075123;28;20254;-75
2023/09/17 02:58:04;;;;;;;24.97;14.30;;;;;;;19.44;93.07;95640.75;5058766;28;20241;-73
2023/09/17 03:00:31;;;;;;;27.10;14.70;;;;;;;19.43;92.38;95631.19;5047821;28;20736;-75
2023/09/17 03:02:57;;;;;;;23.43;14.10;;;;;;;19.40;92.92;95634.31;5066796;28;20233;-74
2023/09/17 03:05:22;;;;;;;26.80;14.57;;;;;;;19.36;92.81;95633.19;5047211;28;20233;-74
2023/09/17 03:07:48;;;;;;;26.57;14.97;;;;;;;19.36;92.79;95631.34;5062816;28;20229;-73
2023/09/17 03:10:14;;;;;;;27.03;14.63;;;;;;;19.40;92.52;95629.81;5053747;28;20237;-74
2023/09/17 03:12:39;;;;;;;25.60;14.40;;;;;;;19.42;92.47;95624.25;5052299;28;20267;-74
2023/09/17 03:15:05;;;;;;;26.50;14.63;;;;;;;19.43;92.95;95631.19;5052317;28;20244;-74
2023/09/17 03:17:32;;;;;;;22.07;13.77;;;;;;;19.44;92.38;95640.75;5053167;28;20290;-74
2023/09/17 03:19:58;;;;;;;23.93;13.77;;;;;;;19.44;91.93;95635.44;5041763;28;20247;-74
2023/09/17 03:22:23;;;;;;;21.40;13.73;;;;;;;19.42;91.89;95633.03;5069811;28;20217;-75
2023/09/17 03:24:49;;;;;;;22.60;13.20;;;;;;;19.42;92.11;95637.53;5065328;28;20221;-74
2023/09/17 03:27:15;;;;;;;22.20;13.10;;;;;;;19.36;92.44;95635.84;5055052;28;20766;-74
2023/09/17 03:29:40;;;;;;;23.33;13.13;;;;;;;19.33;92.19;95645.03;5069900;28;20225;-74
2023/09/17 03:32:06;;;;;;;21.03;12.33;;;;;;;19.32;92.02;95639.97;5051633;28;21206;-77
2023/09/17 03:34:32;;;;;;;24.03;12.50;;;;;;;19.39;91.86;95635.38;5060097;28;20235;-77
2023/09/17 03:36:58;;;;;;;23.63;12.43;;;;;;;19.38;92.60;95633.75;5082067;28;20251;-76
2023/09/17 03:39:24;;;;;;;22.13;12.53;;;;;;;19.41;92.19;95635.94;5058988;28;20603;-79
2023/09/17 03:41:49;;;;;;;22.13;12.60;;;;;;;19.36;92.82;95641.16;5059022;28;20230;-76
2023/09/17 03:44:14;;;;;;;23.33;12.50;;;;;;;19.42;91.69;95643.66;5066589;28;20232;-76
2023/09/17 03:46:40;;;;;;;21.10;12.37;;;;;;;19.34;92.66;95637.91;5077405;28;20237;-76
2023/09/17 03:49:06;;;;;;;23.27;12.60;;;;;;;19.31;92.64;95635.69;5064421;28;20220;-76
2023/09/17 03:51:31;;;;;;;21.57;12.20;;;;;;;19.36;92.26;95638.50;5088591;28;20220;-76
2023/09/17 03:53:57;;;;;;;21.23;11.73;;;;;;;19.33;92.67;95641.56;5067060;28;20272;-76
2023/09/17 03:56:23;;;;;;;20.73;12.00;;;;;;;19.22;93.12;95648.56;5052719;28;20767;-76
2023/09/17 03:58:48;;;;;;;22.33;12.57;;;;;;;19.29;92.88;95641.25;5059662;28;20509;-77
2023/09/17 04:01:14;;;;;;;22.83;12.37;;;;;;;19.28;93.17;95652.91;5063737;28;20243;-76
2023/09/17 04:03:40;;;;;;;21.67;12.40;;;;;;;19.31;92.65;95648.97;5074405;28;20234;-77
2023/09/17 04:06:06;;;;;;;21.87;12.37;;;;;;;19.30;92.82;95655.31;5064896;28;20212;-76
2023/09/17 04:08:31;;;;;;;20.40;12.87;;;;;;;19.10;94.17;95655.72;5090740;28;20242;-77
2023/09/17 04:10:57;;;;;;;22.73;12.93;;;;;;;19.29;93.31;95664.34;5094012;28;20228;-77
2023/09/17 04:13:22;;;;;;;25.40;12.27;;;;;;;19.20;93.90;95660.44;5085260;28;20279;-77
2023/09/17 04:15:49;;;;;;;23.80;12.67;;;;;;;19.18;93.55;95662.50;5083665;28;20228;-76
2023/09/17 04:18:14;;;;;;;21.63;12.57;;;;;;;19.25;93.41;95671.16;5069903;28;20249;-76
2023/09/17 04:20:40;;;;;;;22.93;13.10;;;;;;;19.32;93.37;95658.56;5084283;28;20247;-77
2023/09/17 04:23:06;;;;;;;22.87;13.20;;;;;;;19.35;93.06;95666.03;5085833;28;20222;-77
2023/09/17 04:25:32;;;;;;;27.73;13.47;;;;;;;19.25;93.58;95663.19;5069967;28;20237;-77
2023/09/17 04:27:57;;;;;;;26.60;13.63;;;;;;;19.27;93.80;95666.44;5069863;28;20253;-76
2023/09/17 04:30:23;;;;;;;23.00;14.03;;;;;;;19.29;93.60;95664.34;5067904;28;20245;-76
2023/09/17 04:32:50;;;;;;;25.10;14.60;;;;;;;19.27;93.93;95661.91;5069155;28;20243;-76
2023/09/17 04:35:17;;;;;;;25.93;15.03;;;;;;;19.18;94.13;95667.81;5065582;28;20227;-77
2023/09/17 04:37:42;;;;;;;25.53;14.87;;;;;;;19.18;94.53;95658.00;5063998;28;20226;-76
2023/09/17 04:40:11;;;;;;;24.57;14.67;;;;;;;19.23;94.69;95665.25;5084607;28;20288;-76
2023/09/17 04:42:41;;;;;;;25.60;14.97;;;;;;;19.10;95.48;95668.19;5087414;28;20225;-76
2023/09/17 04:45:06;;;;;;;24.97;14.50;;;;;;;19.07;95.86;95663.34;5069169;28;20258;-77
2023/09/17 04:47:33;;;;;;;24.43;14.60;;;;;;;19.17;95.15;95666.22;5080384;28;20217;-76
2023/09/17 04:49:58;;;;;;;26.30;14.03;;;;;;;19.15;95.20;95663.00;5090067;28;20236;-76
2023/09/17 04:52:24;;;;;;;25.33;14.90;;;;;;;19.19;95.25;95661.47;5069352;28;20239;-77
2023/09/17 04:54:49;;;;;;;25.00;14.57;;;;;;;19.26;95.16;95670.91;5085112;28;20226;-76
2023/09/17 04:57:15;;;;;;;24.60;14.37;;;;;;;19.27;95.21;95669.06;5076605;28;20228;-76
2023/09/17 04:59:41;;;;;;;25.83;13.50;;;;;;;19.28;95.26;95674.16;5070418;28;20232;-76
2023/09/17 05:02:06;;;;;;;25.97;13.97;;;;;;;19.24;95.80;95661.56;5069821;28;20251;-75
2023/09/17 05:04:32;;;;;;;21.73;13.57;;;;;;;19.33;95.46;95670.78;5058997;28;20228;-77
2023/09/17 05:06:58;;;;;;;24.10;14.33;;;;;;;19.37;95.48;95674.59;5086910;28;20277;-76
2023/09/17 05:09:25;;;;;;;24.63;13.97;;;;;;;19.43;95.07;95673.69;5061462;28;20256;-76
2023/09/17 05:11:51;;;;;;;22.40;13.40;;;;;;;19.43;95.52;95669.19;5087323;28;20227;-76
2023/09/17 05:14:16;;;;;;;25.07;13.20;;;;;;;19.45;95.27;95674.25;5087760;28;20236;-76
2023/09/17 05:16:41;;;;;;;24.20;13.10;;;;;;;19.52;95.39;95677.56;5066162;28;20224;-76
2023/09/17 05:19:07;;;;;;;23.30;13.13;;;;;;;19.44;96.21;95677.94;5068564;28;20216;-77
2023/09/17 05:21:33;;;;;;;22.63;12.87;;;;;;;19.42;96.15;95670.22;5069251;28;20229;-76
2023/09/17 05:23:58;;;;;;;25.50;12.90;;;;;;;19.52;95.93;95677.56;5052921;28;20262;-76
2023/09/17 05:26:25;;;;;;;28.50;13.17;;;;;;;19.61;95.61;95672.69;5063046;28;20228;-76
2023/09/17 05:28:51;;;;;;;27.67;13.13;;;;;;;19.58;96.41;95673.97;5070208;28;20329;-77
2023/09/17 05:31:16;;;;;;;23.13;13.83;;;;;;;19.53;96.30;95673.88;5054289;28;20770;-77
2023/09/17 05:33:41;;;;;;;23.77;13.40;;;;;;;19.67;96.28;95669.91;5073691;28;20224;-77
2023/09/17 05:36:07;;;;;;;23.23;13.93;;;;;;;19.67;95.85;95671.75;5069282;28;20233;-77
2023/09/17 05:38:32;;;;;;;24.83;14.43;;;;;;;19.75;96.05;95660.75;5045885;28;20225;-77
2023/09/17 05:40:58;;;;;;;26.37;14.47;;;;;;;19.88;95.92;95666.56;5049296;28;20239;-77
2023/09/17 05:43:24;;;;;;;23.63;15.03;;;;;;;19.86;95.97;95668.66;5038889;28;20236;-76
2023/09/17 05:45:56;;;;;;;27.50;15.93;;;;;;;19.87;95.83;95664.16;5053962;28;20233;-76
2023/09/17 05:48:24;;;;;;;26.70;15.63;;;;;;;19.88;96.04;95671.88;5074738;28;20233;-77
2023/09/17 05:50:50;;;;;;;28.03;16.80;;;;;;;19.88;96.26;95673.72;5067283;28;20279;-76
2023/09/17 05:53:16;;;;;;;30.33;17.93;;;;;;;19.94;96.47;95673.56;5062550;28;20237;-76
2023/09/17 05:55:42;;;;;;;34.87;17.70;;;;;;;19.96;95.95;95676.00;5049977;28;20727;-76
2023/09/17 05:58:08;;;;;;;31.80;17.63;;;;;;;19.93;96.40;95673.81;5073839;28;20227;-76
2023/09/17 06:00:33;;;;;;;30.93;18.40;;;;;;;20.00;96.40;95683.25;5063449;28;20851;-77
2023/09/17 06:02:58;;;;;;;30.23;17.97;;;;;;;19.99;96.80;95678.97;5039981;28;20341;-77
2023/09/17 06:05:24;;;;;;;32.23;18.37;;;;;;;20.10;95.94;95687.94;5060683;28;20230;-76
2023/09/17 06:07:50;;;;;;;35.20;19.33;;;;;;;20.14;95.95;95684.56;5071163;28;20220;-77
2023/09/17 06:10:15;;;;;;;34.00;18.90;;;;;;;20.00;96.31;95691.22;5061168;28;20236;-76
2023/09/17 06:12:41;;;;;;;38.67;20.07;;;;;;;19.95;96.64;95679.69;5068850;28;20260;-76
2023/09/17 06:15:07;;;;;;;36.27;20.73;;;;;;;20.02;96.65;95686.47;5065871;28;20224;-76
2023/09/17 06:17:32;;;;;;;37.43;20.53;;;;;;;20.03;97.26;95687.28;5060940;28;20220;-77
2023/09/17 06:19:58;;;;;;;37.07;19.63;;;;;;;20.07;96.45;95683.09;5037565;28;20230;-77
2023/09/17 06:22:23;;;;;;;35.53;20.53;;;;;;;20.03;96.45;95682.78;5037109;28;20224;-77
2023/09/17 06:24:49;;;;;;;33.67;19.60;;;;;;;20.08;96.22;95696.13;5064028;28;20228;-76
2023/09/17 06:27:14;;;;;;;36.93;20.13;;;;;;;20.09;96.15;95695.09;5052181;28;20247;-76
2023/09/17 06:29:39;;;;;;;34.70;19.43;;;;;;;20.13;96.09;95700.75;5072014;28;20697;-76
2023/09/17 06:32:05;;;;;;;33.17;18.67;;;;;;;20.12;96.29;95707.91;5067111;28;20234;-76
2023/09/17 06:34:30;;;;;;;35.03;19.10;;;;;;;20.14;96.09;95703.16;5056337;28;20300;-76
2023/09/17 06:36:56;;;;;;;33.23;18.40;;;;;;;20.11;96.14;95708.16;5038099;28;20228;-76
2023/09/17 06:39:21;;;;;;;32.47;17.77;;;;;;;20.07;96.10;95707.84;5052590;28;20231;-76
2023/09/17 06:41:47;;;;;;;38.87;18.90;;;;;;;20.15;96.01;95718.09;5065150;28;20604;-76
2023/09/17 06:44:12;;;;;;;35.80;18.03;;;;;;;20.15;96.26;95712.78;5068928;28;20663;-77
2023/09/17 06:46:38;;;;;;;32.00;17.50;;;;;;;20.22;96.07;95706.47;5058828;28;20913;-77
2023/09/17 06:49:03;;;;;;;31.73;18.23;;;;;;;20.32;95.59;95704.84;5057703;28;20224;-76
2023/09/17 06:51:29;;;;;;;29.33;17.73;;;;;;;20.27;95.54;95704.75;5056325;28;20244;-76
2023/09/17 06:53:54;;;;;;;32.37;17.93;;;;;;;20.38;95.05;95703.88;5054963;28;20360;-77
2023/09/17 06:56:23;;;;;;;32.00;17.57;;;;;;;20.42;94.74;95702.31;5050877;28;20238;-78
2023/09/17 06:58:49;;;;;;;37.30;19.50;;;;;;;20.50;94.49;95711.75;5052728;28;20232;-76
2023/09/17 07:01:14;;;;;;;36.10;19.00;;;;;;;20.56;94.20;95702.84;5071567;28;20725;-76
2023/09/17 07:03:40;;;;;;;34.73;18.13;;;;;;;20.54;93.94;95710.25;5055778;28;20900;-77
2023/09/17 07:06:05;;;;;;;30.13;16.80;;;;;;;20.55;93.75;95701.22;5066371;28;20309;-76
2023/09/17 07:08:31;;;;;;;30.67;17.30;;;;;;;20.58;93.63;95706.88;5057043;28;20228;-76
2023/09/17 07:10:56;;;;;;;30.97;17.50;;;;;;;20.52;93.30;95710.47;5064796;28;20228;-76
2023/09/17 07:13:22;;;;;;;29.97;17.50;;;;;;;20.56;93.21;95708.16;5071323;28;20368;-80
2023/09/17 07:15:47;;;;;;;32.77;18.43;;;;;;;20.60;93.55;95701.28;5058495;28;20639;-80
2023/09/17 07:18:13;;;;;;;32.23;17.83;;;;;;;20.76;92.66;95709.25;5076145;28;20281;-81
2023/09/17 07:20:39;;;;;;;32.20;18.00;;;;;;;20.76;92.58;95706.59;5057223;28;20241;-80
2023/09/17 07:23:04;;;;;;;34.07;19.60;;;;;;;20.76;92.52;95709.25;5049692;28;20252;-79
2023/09/17 07:25:31;;;;;;;38.73;19.80;;;;;;;20.78;92.30;95709.00;5045601;28;20870;-80
2023/09/17 07:28:04;;;;;;;41.47;21.73;;;;;;;20.71;93.07;95714.50;5043479;28;20260;-81
2023/09/17 07:30:33;;;;;;;38.90;20.90;;;;;;;20.64;93.13;95719.19;5061837;28;20232;-80
2023/09/17 07:32:59;;;;;;;37.27;21.47;;;;;;;20.82;92.64;95723.47;5052646;28;20250;-80
2023/09/17 07:35:24;;;;;;;37.60;20.77;;;;;;;20.92;92.82;95728.13;5052684;28;20231;-81
2023/09/17 07:37:50;;;;;;;34.80;19.70;;;;;;;20.97;91.51;95730.88;5053331;28;20301;-81
2023/09/17 07:40:15;;;;;;;34.70;20.07;;;;;;;21.06;90.63;95724.09;5057246;28;20273;-80
2023/09/17 07:42:41;;;;;;;33.80;19.77;;;;;;;21.13;90.76;95724.75;5057016;28;20228;-81
2023/09/17 07:45:07;;;;;;;34.83;20.73;;;;;;;21.23;90.78;95735.53;5051676;28;20297;-82
2023/09/17 07:47:33;;;;;;;37.17;21.57;;;;;;;21.28;90.96;95733.72;5052188;28;20229;-80
2023/09/17 07:49:58;;;;;;;40.27;22.30;;;;;;;21.47;90.03;95737.72;5068003;28;20268;-80
2023/09/17 07:52:24;;;;;;;38.07;22.13;;;;;;;21.55;89.48;95733.00;5056025;28;20221;-80
2023/09/17 07:54:49;;;;;;;39.87;21.97;;;;;;;21.63;89.10;95727.25;5052217;28;20243;-79
2023/09/17 07:57:15;;;;;;;39.78;22.73;;;;;;;21.72;88.52;95733.75;5052863;28;20232;-79
2023/09/17 07:59:41;;;;;;;40.15;22.45;;;;;;;21.71;88.50;95735.59;5070681;28;20312;-80
2023/09/17 08:02:06;;;;;;;39.95;21.10;;;;;;;21.85;87.13;95730.75;5035516;28;20672;-80
2023/09/17 08:04:32;;;;;;;40.15;21.60;;;;;;;21.80;86.90;95726.13;5046840;28;20236;-79
2023/09/17 08:06:59;;;;;;;45.28;24.17;;;;;;;21.73;88.15;95720.19;5058668;28;20229;-81
2023/09/17 08:09:25;;;;;;;40.53;22.23;;;;;;;21.85;86.49;95720.88;5040935;28;20620;-82
2023/09/17 08:11:50;;;;;;;41.97;23.85;;;;;;;21.84;87.09;95726.44;5053491;28;20233;-79
2023/09/17 08:14:16;;;;;;;44.45;23.58;;;;;;;21.87;87.45;95725.97;5046851;28;20225;-82
2023/09/17 08:16:42;;;;;;;43.08;23.38;;;;;;;21.83;86.52;95722.94;5038159;28;20722;-81
2023/09/17 08:19:07;;;;;;;42.53;22.50;;;;;;;21.86;86.08;95724.34;5040979;28;20229;-81
2023/09/17 08:21:33;;;;;;;42.50;22.07;;;;;;;21.91;85.22;95727.06;5072939;28;20767;-84
2023/09/17 08:23:59;;;;;;;39.17;22.33;;;;;;;22.04;85.48;95732.03;5047503;28;20244;-81
2023/09/17 08:26:28;;;;;;;42.50;23.27;;;;;;;22.12;85.66;95728.88;5033604;28;20257;-80
2023/09/17 08:29:00;;;;;;;39.37;21.63;;;;;;;22.16;84.35;95730.00;5054514;28;20236;-79
2023/09/17 08:31:26;;;;;;;43.47;23.58;;;;;;;22.09;85.10;95724.84;5046998;28;20243;-80
2023/09/17 08:33:54;;;;;;;43.58;23.55;;;;;;;22.17;84.90;95728.94;5042495;28;20268;-79
2023/09/17 08:36:21;;;;;;;40.00;21.60;;;;;;;22.10;84.37;95721.16;5049051;28;20291;-80
2023/09/17 08:38:49;;;;;;;39.10;21.88;;;;;;;22.10;84.21;95725.66;5038723;28;20231;-80
2023/09/17 08:41:14;;;;;;;39.80;21.27;;;;;;;22.02;83.64;95718.91;5071675;28;20282;-80
2023/09/17 08:43:40;;;;;;;37.03;20.65;;;;;;;21.96;84.18;95721.78;5046815;28;20278;-80
2023/09/17 08:46:06;;;;;;;38.58;21.23;;;;;;;22.00;84.71;95720.22;5036354;28;20221;-81
2023/09/17 08:48:31;;;;;;;40.30;21.58;;;;;;;21.95;84.51;95720.16;5052380;28;20232;-82
2023/09/17 08:50:57;;;;;;;38.25;21.42;;;;;;;22.09;84.48;95724.06;5052812;28;20233;-79
2023/09/17 08:53:28;;;;;;;41.88;20.63;;;;;;;22.11;83.60;95716.63;5038373;28;20673;-79
2023/09/17 08:55:55;;;;;;;42.25;21.88;;;;;;;22.17;84.11;95717.47;5036518;28;20227;-80
2023/09/17 08:58:25;;;;;;;40.53;21.58;;;;;;;22.19;84.54;95715.38;5041641;28;20263;-80
2023/09/17 09:00:50;;;;;;;40.22;21.60;;;;;;;22.24;83.62;95724.22;5038917;28;20316;-80
2023/09/17 09:03:16;;;;;;;40.95;22.05;;;;;;;22.30;83.40;95709.88;5077436;28;20266;-80
2023/09/17 09:05:42;;;;;;;38.10;20.13;;;;;;;22.25;83.03;95715.16;5040190;28;20604;-81
2023/09/17 09:08:08;;;;;;;37.08;20.92;;;;;;;22.25;83.62;95709.81;5041711;28;20224;-79
2023/09/17 09:10:33;;;;;;;37.47;21.27;;;;;;;22.30;83.08;95707.22;5055686;28;20901;-80
2023/09/17 09:13:00;;;;;;;34.78;19.23;;;;;;;22.37;81.79;95705.13;5059037;28;20225;-80
2023/09/17 09:15:26;;;;;;;33.47;19.30;;;;;;;22.40;81.73;95709.94;5059159;28;20252;-80
2023/09/17 09:17:54;;;;;;;37.87;20.00;;;;;;;22.48;82.03;95708.69;5073738;28;20256;-80
2023/09/17 09:20:20;;;;;;;37.85;20.98;;;;;;;22.64;82.68;95716.59;5075601;28;20236;-80
2023/09/17 09:22:46;;;;;;;33.65;19.10;;;;;;;22.67;80.83;95716.09;5036320;28;20232;-78
2023/09/17 09:25:15;;;;;;;34.43;20.43;;;;;;;22.72;81.58;95702.78;5060803;28;20236;-78
2023/09/17 09:27:41;;;;;;;35.63;20.42;;;;;;;22.73;81.44;95704.41;5040415;28;20319;-79
2023/09/17 09:30:08;;;;;;;33.88;18.90;;;;;;;22.63;80.93;95698.97;5075321;28;20324;-79
2023/09/17 09:32:33;;;;;;;35.80;19.65;;;;;;;22.57;81.35;95693.84;5062426;28;20298;-80
2023/09/17 09:34:58;;;;;;;36.10;20.20;;;;;;;22.61;81.38;95694.97;5042623;28;20228;-80
2023/09/17 09:37:24;;;;;;;35.10;20.13;;;;;;;22.64;80.66;95697.13;5042352;28;20232;-79
2023/09/17 09:39:49;;;;;;;34.00;20.05;;;;;;;22.56;80.69;95697.56;5036476;28;20229;-80
2023/09/17 09:42:15;;;;;;;36.08;19.55;;;;;;;22.70;80.17;95696.91;5035970;28;20228;-78
2023/09/17 09:44:40;;;;;;;34.88;20.02;;;;;;;22.94;80.00;95702.66;5055689;28;20235;-80
2023/09/17 09:47:06;;;;;;;36.70;21.20;;;;;;;23.04;79.49;95709.94;5052948;28;20213;-80
2023/09/17 09:49:41;;;;;;;32.58;19.73;;;;;;;23.05;78.55;95698.97;5041426;28;20264;-79
2023/09/17 09:52:07;;;;;;;35.10;19.25;;;;;;;23.18;77.63;95705.75;5062032;28;20243;-80
2023/09/17 09:54:32;;;;;;;34.55;18.67;;;;;;;23.24;77.94;95704.69;5066838;28;20268;-79
2023/09/17 09:56:58;;;;;;;37.13;19.88;;;;;;;23.21;77.76;95711.38;5062637;28;20376;-79
2023/09/17 09:59:24;;;;;;;35.65;20.35;;;;;;;23.15;77.82;95711.59;5072376;28;20233;-81
2023/09/17 10:01:50;;;;;;;37.28;19.90;;;;;;;23.16;78.62;95707.88;5049706;28;20699;-79
2023/09/17 10:04:16;;;;;;;34.42;20.40;;;;;;;23.12;78.59;95699.56;5073130;28;20244;-80
2023/09/17 10:06:41;;;;;;;38.17;21.33;;;;;;;23.36;78.62;95697.31;5034306;28;20328;-80
2023/09/17 10:09:07;;;;;;;34.28;20.13;;;;;;;23.34;78.35;95697.56;5056620;28;20237;-80
2023/09/17 10:11:33;;;;;;;36.22;20.92;;;;;;;23.51;78.04;95694.72;5061312;28;20224;-80
2023/09/17 10:14:16;;;;;;;36.45;20.02;;;;;;;23.69;76.64;95702.25;5054156;28;20237;-80
2023/09/17 10:16:42;;;;;;;31.95;19.52;;;;;;;23.75;75.76;95697.75;5035534;28;20287;-82
2023/09/17 10:19:07;;;;;;;33.67;19.92;;;;;;;23.87;76.52;95699.13;5051016;28;20220;-79
2023/09/17 10:21:38;;;;;;;33.35;19.48;;;;;;;23.94;75.50;95697.00;5039548;28;20232;-79
2023/09/17 10:24:03;;;;;;;35.42;20.38;;;;;;;23.69;76.21;95691.56;5039164;28;20220;-79
2023/09/17 10:26:32;;;;;;;32.78;19.58;;;;;;;23.51;76.36;95691.22;5053105;28;20238;-77
2023/09/17 10:28:59;;;;;;;38.28;20.00;;;;;;;23.36;77.13;95698.13;5041083;28;20229;-77
2023/09/17 10:31:24;;;;;;;36.47;21.00;;;;;;;23.27;77.16;95693.50;5049219;28;20236;-79
2023/09/17 10:33:50;;;;;;;36.75;20.45;;;;;;;23.09;77.85;95691.28;5064600;28;20227;-80
2023/09/17 10:36:15;;;;;;;33.17;20.67;;;;;;;23.11;78.04;95689.16;5040777;28;20239;-79
2023/09/17 10:38:41;;;;;;;35.75;21.17;;;;;;;23.08;78.69;95695.81;5043535;28;20235;-82
2023/09/17 10:41:06;;;;;;;37.72;22.05;;;;;;;23.20;78.57;95690.25;5052215;28;20235;-80
2023/09/17 10:43:35;;;;;;;42.30;21.98;;;;;;;23.12;78.16;95690.78;5040556;28;20232;-79
2023/09/17 10:46:01;;;;;;;41.33;22.83;;;;;;;23.17;78.34;95688.91;5048360;28;20221;-79
2023/09/17 10:48:27;;;;;;;40.85;21.90;;;;;;;23.13;78.54;95687.00;5066010;28;20249;-80
2023/09/17 10:50:53;;;;;;;42.20;22.35;;;;;;;23.19;77.49;95686.78;5036204;28;20621;-79
2023/09/17 10:53:18;;;;;;;36.22;22.83;;;;;;;23.25;77.49;95688.44;5039783;28;20231;-79
2023/09/17 10:55:52;;;;;;;38.53;21.65;;;;;;;23.11;78.70;95683.81;5047907;28;20313;-73
2023/09/17 10:58:20;;;;;;;38.72;23.35;;;;;;;23.12;77.96;95683.53;5045793;28;20224;-73
2023/09/17 11:00:46;;;;;;;37.70;21.55;;;;;;;23.16;77.01;95681.97;5066143;28;20236;-73
2023/09/17 11:03:15;;;;;;;38.97;21.55;;;;;;;23.17;77.60;95669.41;5058311;28;20251;-73
2023/09/17 11:05:40;;;;;;;37.88;22.20;;;;;;;23.15;77.79;95664.31;5065025;28;20228;-73
2023/09/17 11:08:06;;;;;;;37.13;21.23;;;;;;;23.18;77.12;95663.00;5061329;28;20244;-73
2023/09/17 11:10:31;;;;;;;37.92;21.30;;;;;;;23.19;78.13;95653.94;5049407;28;20252;-74
2023/09/17 11:12:57;;;;;;;33.78;20.75;;;;;;;23.22;77.14;95650.72;5050949;28;20277;-72
2023/09/17 11:15:22;;;;;;;34.92;20.85;;;;;;;23.44;76.00;95646.06;5050074;28;20403;-73